TAF KMCN
AMD KMCN 082043Z 0821/0918 31008KT P6SM SCT020 TEMPO 0821/0823 BKN020 FM082300 31006KT P6SM SKC FM090100 30004KT P6SM SCT045 SCT250=
METAR KMCN
WC KMCN
WS KMCN
WV KMCN